Time;durP1;ratioP1;P1;durP2;ratioP2;P2;SDS_P1;SDS_P2;PMS_P1;PMS_P2;Temp;Humidity;BMP_temperature;BMP_pressure;BME280_temperature;BME280_humidity;BME280_pressure;Samples;Min_cycle;Max_cycle;Signal;HPM_P1;HPM_P2
2022/01/26 00:00:08;;;;;;;12.37;4.10;;;;;;;-1.20;86.88;101793.69;1862344;77;21059;-61
2022/01/26 00:08:07;;;;;;;12.93;5.35;;;;;;;-1.17;88.35;101807.96;1862014;77;21022;-60
2022/01/26 00:10:36;;;;;;;11.38;5.12;;;;;;;-1.13;88.94;101817.10;1862347;77;21066;-61
2022/01/26 00:13:05;;;;;;;17.02;5.78;;;;;;;-1.07;89.27;101817.25;1840742;77;21101;-62
2022/01/26 00:15:34;;;;;;;14.25;5.35;;;;;;;-0.99;89.55;101818.34;1834695;78;21136;-60
2022/01/26 00:18:03;;;;;;;17.12;6.12;;;;;;;-0.89;89.66;101809.09;1840362;77;21157;-60
2022/01/26 00:20:50;;;;;;;12.05;5.17;;;;;;;-0.80;89.61;101801.14;1823014;78;21125;-64
2022/01/26 00:23:21;;;;;;;20.55;7.42;;;;;;;-0.75;89.60;101794.80;1837749;78;21063;-66
2022/01/26 00:26:04;;;;;;;15.43;6.97;;;;;;;-0.73;89.38;101790.53;1831918;78;21050;-62
2022/01/26 00:33:06;;;;;;;18.27;7.35;;;;;;;-0.80;88.56;101779.58;1838705;78;21036;-65
2022/01/26 00:39:16;;;;;;;33.55;13.65;;;;;;;-1.03;87.50;101782.91;1834399;78;21135;-67
2022/01/26 00:41:46;;;;;;;28.00;10.85;;;;;;;-1.16;87.48;101780.43;1835118;78;21114;-65
2022/01/26 00:44:15;;;;;;;28.70;11.15;;;;;;;-1.30;87.83;101768.85;1838696;78;21509;-60
2022/01/26 00:46:48;;;;;;;26.35;10.50;;;;;;;-1.31;88.02;101771.86;1841040;78;21193;-62
2022/01/26 00:49:16;;;;;;;29.92;11.55;;;;;;;-1.27;88.69;101771.50;1829286;78;21105;-62
2022/01/26 00:51:44;;;;;;;30.60;11.30;;;;;;;-1.27;88.69;101771.50;1822033;78;21047;-67
2022/01/26 00:54:13;;;;;;;25.43;11.15;;;;;;;-1.27;89.12;101766.33;1838812;78;21573;-63
2022/01/26 00:56:42;;;;;;;27.22;11.60;;;;;;;-1.16;89.44;101772.67;1841151;78;21110;-62
2022/01/26 00:59:11;;;;;;;29.67;12.28;;;;;;;-1.07;89.71;101774.59;1845333;78;21031;-60
2022/01/26 01:01:40;;;;;;;23.18;10.93;;;;;;;-0.97;89.87;101771.42;1844097;78;21466;-64
2022/01/26 01:04:09;;;;;;;25.90;10.58;;;;;;;-0.93;90.02;101772.37;1834718;78;21065;-64
2022/01/26 01:06:46;;;;;;;28.15;10.90;;;;;;;-0.87;90.17;101768.63;1835957;78;21118;-67
2022/01/26 01:09:08;;;;;;;23.57;9.50;;;;;;;-0.80;90.27;101769.23;1837530;78;21055;-66
2022/01/26 01:11:37;;;;;;;28.32;10.38;;;;;;;-0.74;90.28;101771.97;1835739;78;21236;-66
2022/01/26 01:14:05;;;;;;;24.32;8.98;;;;;;;-0.69;90.27;101774.67;1838807;78;21178;-58
2022/01/26 01:16:34;;;;;;;16.23;7.20;;;;;;;-0.67;90.32;101773.86;1830748;78;21127;-61
2022/01/26 01:19:26;;;;;;;21.15;8.95;;;;;;;-0.64;90.19;101765.32;1828464;77;21091;-60
2022/01/26 01:25:19;;;;;;;;;;;;;;;-0.66;89.75;101768.29;1817683;79;21164;-62
2022/01/26 01:29:45;;;;;;;15.35;6.47;;;;;;;-0.64;89.49;101767.91;1814951;79;21057;-64
2022/01/26 01:32:28;;;;;;;12.65;5.28;;;;;;;-0.62;89.49;101773.55;1814356;79;21605;-60
2022/01/26 01:34:42;;;;;;;16.77;7.20;;;;;;;-0.57;89.47;101774.97;1841057;78;21055;-60
2022/01/26 01:37:15;;;;;;;16.67;7.58;;;;;;;-0.57;89.42;101772.78;1889924;76;21481;-60
2022/01/26 01:39:43;;;;;;;17.60;7.92;;;;;;;-0.57;89.77;101772.39;1889953;76;21438;-60
2022/01/26 01:42:12;;;;;;;18.92;7.28;;;;;;;-0.57;89.87;101773.68;1889902;76;21134;-60
2022/01/26 01:44:41;;;;;;;16.65;7.40;;;;;;;-0.55;89.69;101765.53;1890058;75;21132;-60
2022/01/26 01:47:10;;;;;;;19.10;7.05;;;;;;;-0.55;89.77;101772.00;1890003;76;21489;-60
2022/01/26 01:49:39;;;;;;;20.77;7.45;;;;;;;-0.52;89.85;101775.06;1889307;76;21059;-60
2022/01/26 01:52:13;;;;;;;20.82;7.15;;;;;;;-0.54;90.03;101775.02;1888915;76;21043;-60
2022/01/26 01:54:40;;;;;;;18.37;6.87;;;;;;;-0.52;90.23;101768.16;1888812;76;21051;-60
2022/01/26 01:57:08;;;;;;;18.42;7.40;;;;;;;-0.47;90.38;101769.16;1888974;76;21051;-60
2022/01/26 01:59:37;;;;;;;18.82;6.33;;;;;;;-0.43;90.47;101768.80;1888805;76;21489;-61
2022/01/26 02:02:06;;;;;;;16.67;5.75;;;;;;;-0.40;90.41;101769.75;1888979;76;21133;-60
2022/01/26 02:04:34;;;;;;;14.05;5.83;;;;;;;-0.36;90.31;101771.98;1889003;76;21346;-60
2022/01/26 02:07:04;;;;;;;16.15;5.45;;;;;;;-0.34;90.03;101769.44;1889009;76;21497;-60
2022/01/26 02:09:33;;;;;;;13.98;5.92;;;;;;;-0.34;89.89;101769.02;1889008;76;21027;-60
2022/01/26 02:12:03;;;;;;;16.25;6.47;;;;;;;-0.36;90.06;101777.59;1888894;76;21047;-60
2022/01/26 02:14:36;;;;;;;13.30;5.45;;;;;;;-0.38;90.40;101776.69;1873738;76;21070;-60
2022/01/26 02:55:47;;;;;;;10.75;4.97;;;;;;;-0.03;90.54;101771.84;1849033;77;21067;-62
2022/01/26 03:03:58;;;;;;;13.78;5.92;;;;;;;0.02;90.27;101773.65;1787774;80;21149;-61
2022/01/26 03:06:12;;;;;;;12.82;6.65;;;;;;;0.02;90.32;101765.48;1781745;80;21161;-61
2022/01/26 03:08:48;;;;;;;14.60;6.97;;;;;;;0.05;90.17;101763.36;1786888;80;21146;-60
2022/01/26 03:11:13;;;;;;;16.27;7.35;;;;;;;0.05;90.20;101758.19;1785147;80;21074;-62
2022/01/26 03:13:50;;;;;;;14.78;6.55;;;;;;;0.05;90.45;101756.89;1788305;78;21107;-61
2022/01/26 03:16:29;;;;;;;13.15;6.62;;;;;;;0.09;90.68;101757.40;1824441;78;21071;-59
2022/01/26 03:34:40;;;;;;;22.17;8.10;;;;;;;0.08;89.97;101738.84;1839562;78;21116;-61
2022/01/26 03:37:09;;;;;;;20.08;8.35;;;;;;;0.09;90.07;101741.46;1839487;78;21121;-61
2022/01/26 03:39:43;;;;;;;24.30;9.28;;;;;;;0.06;90.33;101743.11;1839234;77;21046;-62
2022/01/26 03:42:15;;;;;;;13.70;5.65;;;;;;;0.08;90.34;101738.41;1839532;77;21064;-60
2022/01/26 03:44:43;;;;;;;24.82;8.95;;;;;;;0.13;90.30;101744.95;1839096;78;21059;-60
2022/01/26 03:47:12;;;;;;;34.63;13.40;;;;;;;0.15;90.02;101741.58;1839378;77;21118;-60
2022/01/26 03:49:41;;;;;;;28.57;9.83;;;;;;;0.13;89.94;101748.84;1848621;77;21012;-60
2022/01/26 03:52:10;;;;;;;27.98;8.80;;;;;;;0.12;89.95;101757.47;1872815;76;21120;-61
2022/01/26 03:54:40;;;;;;;38.90;10.90;;;;;;;0.09;90.17;101754.81;1866602;77;21140;-60
2022/01/26 03:57:09;;;;;;;22.35;8.50;;;;;;;0.12;90.14;101762.65;1866614;77;21473;-60
2022/01/26 03:59:37;;;;;;;20.40;7.20;;;;;;;0.14;90.09;101760.96;1866621;77;21063;-60
2022/01/26 04:02:06;;;;;;;27.65;9.35;;;;;;;0.17;89.89;101761.91;1866556;77;21102;-60
2022/01/26 04:04:43;;;;;;;10.60;5.25;;;;;;;0.17;89.60;101755.85;1866727;77;21563;-63
2022/01/26 04:07:05;;;;;;;27.37;9.73;;;;;;;0.12;89.30;101752.30;1865500;77;21220;-60
2022/01/26 04:09:34;;;;;;;28.95;10.50;;;;;;;-0.04;88.94;101745.52;1866645;77;21137;-60
2022/01/26 04:12:03;;;;;;;28.40;10.23;;;;;;;-0.11;88.62;101756.98;1866571;77;21015;-61
2022/01/26 04:14:33;;;;;;;27.35;10.13;;;;;;;-0.20;88.40;101757.69;1866320;76;21117;-62
2022/01/26 04:17:02;;;;;;;34.48;10.80;;;;;;;-0.26;88.23;101764.89;1862674;77;21072;-61
2022/01/26 04:19:34;;;;;;;33.28;10.63;;;;;;;-0.30;88.15;101758.31;1862644;77;21512;-62
2022/01/26 04:24:40;;;;;;;38.33;11.63;;;;;;;-0.38;87.98;101752.97;1862799;77;21159;-62
2022/01/26 04:27:16;;;;;;;40.33;10.98;;;;;;;-0.42;88.02;101751.16;1862676;76;21126;-62
2022/01/26 04:29:35;;;;;;;33.53;10.45;;;;;;;-0.44;88.11;101743.36;1862803;76;21052;-62
2022/01/26 04:32:07;;;;;;;41.25;11.03;;;;;;;-0.44;88.20;101747.23;1862623;77;21075;-62
2022/01/26 04:34:36;;;;;;;43.80;11.20;;;;;;;-0.46;88.18;101741.16;1862700;77;21048;-62
2022/01/26 04:40:09;;;;;;;37.48;9.95;;;;;;;-0.45;88.32;101754.53;1862693;77;21212;-62
2022/01/26 04:45:10;;;;;;;30.45;8.90;;;;;;;-0.45;88.73;101758.41;1862641;77;21044;-62
2022/01/26 04:47:38;;;;;;;43.45;13.08;;;;;;;-0.41;88.61;101758.96;1862678;77;21068;-61
2022/01/26 04:50:10;;;;;;;58.40;17.45;;;;;;;-0.35;88.65;101756.03;1835407;77;21621;-61
2022/01/26 04:52:39;;;;;;;55.65;17.73;;;;;;;-0.34;88.54;101751.33;1831839;78;21065;-62
2022/01/26 04:55:09;;;;;;;61.20;15.20;;;;;;;-0.35;88.71;101746.97;1831912;78;21156;-61
2022/01/26 04:57:38;;;;;;;47.80;10.88;;;;;;;-0.31;88.92;101743.64;1831998;78;21100;-61
2022/01/26 05:00:08;;;;;;;41.10;11.80;;;;;;;-0.28;88.84;101747.56;1831902;78;21057;-63
2022/01/26 05:02:37;;;;;;;27.42;9.23;;;;;;;-0.26;88.69;101749.77;1831840;78;21105;-61
2022/01/26 05:05:06;;;;;;;30.80;9.75;;;;;;;-0.25;88.56;101755.41;1831777;78;21029;-61
2022/01/26 05:07:35;;;;;;;38.35;8.90;;;;;;;-0.24;88.55;101748.98;1832019;78;21512;-62
2022/01/26 05:10:04;;;;;;;44.77;10.70;;;;;;;-0.24;88.50;101746.39;1831869;78;21081;-62
2022/01/26 05:12:34;;;;;;;47.50;11.88;;;;;;;-0.27;88.39;101742.86;1831929;78;21053;-62
2022/01/26 05:15:04;;;;;;;24.63;6.15;;;;;;;-0.27;88.52;101751.91;1831819;78;21123;-68
2022/01/26 05:17:33;;;;;;;26.50;8.33;;;;;;;-0.23;88.65;101747.25;1831894;78;21081;-63
2022/01/26 05:20:02;;;;;;;40.75;10.23;;;;;;;-0.20;88.99;101747.33;1831992;78;21030;-62
2022/01/26 05:22:32;;;;;;;43.02;11.97;;;;;;;-0.22;89.18;101751.60;1831798;78;21026;-62
2022/01/26 05:25:01;;;;;;;15.80;5.12;;;;;;;-0.22;89.31;101755.48;1831904;78;21065;-62
2022/01/26 05:27:29;;;;;;;25.40;6.95;;;;;;;-0.19;89.74;101759.41;1831919;78;21540;-62
2022/01/26 05:29:59;;;;;;;17.87;5.50;;;;;;;-0.13;90.13;101757.38;1832117;78;21120;-63
2022/01/26 05:32:28;;;;;;;37.80;10.25;;;;;;;-0.04;90.33;101744.22;1831974;78;21613;-63
2022/01/26 05:34:56;;;;;;;35.40;9.70;;;;;;;0.07;90.32;101747.00;1832001;78;21065;-62
2022/01/26 05:37:25;;;;;;;31.95;10.50;;;;;;;0.14;90.28;101748.87;1831983;78;21088;-63
2022/01/26 05:39:54;;;;;;;26.27;8.95;;;;;;;0.17;90.29;101737.30;1832005;78;21049;-62
2022/01/26 05:42:23;;;;;;;28.73;9.63;;;;;;;0.21;90.23;101743.84;1831912;78;21029;-61
2022/01/26 05:44:54;;;;;;;32.98;10.35;;;;;;;0.25;90.25;101750.82;1831889;78;21148;-64
2022/01/26 05:47:22;;;;;;;19.65;6.53;;;;;;;0.28;90.40;101756.94;1832074;78;21127;-64
2022/01/26 05:49:51;;;;;;;17.75;6.40;;;;;;;0.33;90.64;101752.73;1836234;78;21054;-64
2022/01/26 05:52:20;;;;;;;12.30;4.42;;;;;;;0.36;90.47;101754.48;1837468;78;21142;-62
2022/01/26 05:54:49;;;;;;;23.47;5.80;;;;;;;0.40;90.43;101754.12;1837531;78;21079;-62
2022/01/26 05:57:17;;;;;;;18.48;5.37;;;;;;;0.44;90.37;101747.72;1837591;78;21059;-63
2022/01/26 05:59:46;;;;;;;21.10;5.20;;;;;;;0.46;90.41;101742.57;1837499;77;21537;-63
2022/01/26 06:02:15;;;;;;;16.60;4.78;;;;;;;0.51;90.48;101751.31;1837632;78;21501;-63
2022/01/26 06:04:43;;;;;;;14.25;4.05;;;;;;;0.56;90.70;101750.98;1837632;78;21027;-63
2022/01/26 06:07:12;;;;;;;7.85;3.20;;;;;;;0.61;90.67;101738.09;1837436;78;21071;-63
2022/01/26 06:09:41;;;;;;;8.68;3.65;;;;;;;0.61;90.35;101740.28;1837698;78;21133;-61
2022/01/26 06:12:11;;;;;;;10.60;3.20;;;;;;;0.64;90.32;101740.31;1837405;78;21494;-63
2022/01/26 06:14:39;;;;;;;9.78;4.05;;;;;;;0.60;90.30;101735.93;1837620;78;21138;-62
2022/01/26 06:17:08;;;;;;;8.63;3.22;;;;;;;0.60;90.20;101734.63;1845581;77;21095;-61
2022/01/26 06:19:37;;;;;;;4.42;2.40;;;;;;;0.61;90.39;101727.33;1810239;79;21078;-61
2022/01/26 06:22:05;;;;;;;8.38;3.33;;;;;;;0.72;90.62;101725.78;1810227;79;21501;-61
2022/01/26 06:24:34;;;;;;;9.73;3.87;;;;;;;0.87;90.66;101717.83;1810034;79;21133;-62
2022/01/26 06:27:03;;;;;;;11.33;4.08;;;;;;;1.00;90.74;101728.84;1810195;79;21448;-61
2022/01/26 06:29:31;;;;;;;14.47;4.67;;;;;;;1.07;90.48;101722.91;1810209;79;21031;-61
2022/01/26 06:32:00;;;;;;;14.65;5.40;;;;;;;1.09;90.17;101723.80;1810124;79;21513;-61
2022/01/26 06:34:29;;;;;;;13.93;6.05;;;;;;;1.12;89.99;101722.96;1810225;79;21134;-62
2022/01/26 06:36:58;;;;;;;23.02;6.95;;;;;;;1.18;90.26;101727.38;1810174;79;21593;-62
2022/01/26 06:39:27;;;;;;;15.43;5.90;;;;;;;1.23;90.70;101724.42;1810122;79;21063;-61
2022/01/26 06:41:55;;;;;;;12.80;5.53;;;;;;;1.27;91.17;101724.91;1810040;79;21051;-61
2022/01/26 06:44:32;;;;;;;17.02;6.62;;;;;;;1.31;91.52;101721.11;1810334;79;21466;-62
2022/01/26 06:49:40;;;;;;;11.28;5.55;;;;;;;1.52;91.47;101715.77;1831147;78;21063;-61
2022/01/26 06:52:09;;;;;;;12.65;5.03;;;;;;;1.59;91.37;101727.12;1840292;78;21491;-61
2022/01/26 06:54:38;;;;;;;16.97;5.95;;;;;;;1.65;91.32;101724.17;1840139;78;21056;-61
2022/01/26 06:57:06;;;;;;;14.23;5.12;;;;;;;1.76;91.12;101718.26;1840136;78;21053;-61
2022/01/26 06:59:36;;;;;;;19.07;6.45;;;;;;;1.85;90.92;101717.94;1840249;78;21032;-61
2022/01/26 07:02:05;;;;;;;16.07;6.10;;;;;;;1.89;90.67;101716.25;1839931;78;21035;-61
2022/01/26 07:04:33;;;;;;;15.95;5.58;;;;;;;1.86;90.48;101709.31;1840130;78;21068;-61
2022/01/26 07:07:02;;;;;;;16.95;5.58;;;;;;;1.86;90.35;101705.81;1840136;78;21027;-61
2022/01/26 07:09:31;;;;;;;19.02;6.67;;;;;;;1.88;90.31;101702.41;1840145;78;21068;-61
2022/01/26 07:11:59;;;;;;;15.35;6.10;;;;;;;1.90;90.02;101697.20;1840116;78;21118;-61
2022/01/26 07:20:53;;;;;;;20.75;6.25;;;;;;;2.07;90.10;101687.03;1845433;78;21056;-61
2022/01/26 07:22:35;;;;;;;21.02;7.40;;;;;;;2.16;89.97;101683.23;1845754;76;21125;-61
2022/01/26 07:25:04;;;;;;;16.40;6.08;;;;;;;2.25;90.13;101682.03;1845254;78;21474;-61
2022/01/26 07:27:33;;;;;;;16.67;6.60;;;;;;;2.25;90.55;101676.84;1845388;78;21055;-61
2022/01/26 07:30:03;;;;;;;19.25;6.92;;;;;;;2.31;90.74;101676.03;1845563;78;21122;-61
2022/01/26 07:32:31;;;;;;;18.25;6.83;;;;;;;2.47;90.83;101668.82;1845495;78;21482;-62
2022/01/26 07:35:00;;;;;;;14.45;5.78;;;;;;;2.62;91.11;101677.59;1845449;78;21103;-61
2022/01/26 07:37:29;;;;;;;16.62;6.78;;;;;;;2.74;91.08;101679.01;1845274;78;21063;-61
2022/01/26 07:40:06;;;;;;;15.63;6.60;;;;;;;2.74;90.55;101678.14;1845438;78;21102;-61
2022/01/26 07:42:32;;;;;;;14.47;6.08;;;;;;;2.70;90.37;101682.01;1845618;77;21087;-62
2022/01/26 07:45:01;;;;;;;15.35;6.53;;;;;;;2.78;90.80;101689.01;1845576;78;21458;-63
2022/01/26 07:47:31;;;;;;;15.32;6.17;;;;;;;2.92;90.75;101687.39;1845497;78;21095;-61
2022/01/26 07:50:03;;;;;;;21.05;7.12;;;;;;;2.95;90.49;101687.43;1819976;78;21138;-62
2022/01/26 07:52:35;;;;;;;24.35;6.37;;;;;;;2.94;90.26;101686.98;1815292;78;21063;-62
2022/01/26 07:55:02;;;;;;;19.20;6.35;;;;;;;2.93;89.99;101686.52;1815052;76;21043;-61
2022/01/26 07:57:30;;;;;;;20.45;6.85;;;;;;;2.94;89.89;101686.11;1815263;79;21071;-61
2022/01/26 07:59:59;;;;;;;23.83;7.72;;;;;;;2.91;89.51;101683.03;1815349;79;21039;-61
2022/01/26 08:02:28;;;;;;;21.17;7.22;;;;;;;2.95;89.49;101685.23;1815152;79;21035;-62
2022/01/26 08:04:57;;;;;;;18.80;6.95;;;;;;;3.14;89.66;101686.27;1815217;79;21133;-62
2022/01/26 08:07:27;;;;;;;21.82;7.30;;;;;;;3.30;89.95;101685.47;1815191;79;21554;-62
2022/01/26 08:09:55;;;;;;;19.55;6.87;;;;;;;3.53;90.59;101682.15;1815213;79;21070;-61
2022/01/26 08:12:24;;;;;;;14.38;6.42;;;;;;;3.70;91.33;101681.78;1815248;79;21133;-62
2022/01/26 08:14:53;;;;;;;14.40;6.28;;;;;;;3.93;91.82;101683.61;1815107;79;21559;-63
2022/01/26 08:17:22;;;;;;;13.00;5.53;;;;;;;4.12;91.66;101680.64;1814741;78;21248;-63
2022/01/26 08:19:53;;;;;;;14.13;6.22;;;;;;;4.26;91.54;101671.13;1808939;79;21107;-61
2022/01/26 08:22:21;;;;;;;12.05;5.53;;;;;;;4.43;91.31;101673.75;1808654;79;21149;-61
2022/01/26 08:24:50;;;;;;;12.82;5.90;;;;;;;4.53;91.07;101661.14;1808908;79;21173;-61
2022/01/26 08:27:21;;;;;;;14.85;5.65;;;;;;;4.55;90.54;101660.70;1808857;79;21588;-62
2022/01/26 08:30:02;;;;;;;11.33;5.33;;;;;;;4.35;89.73;101650.69;1819487;78;21110;-61
2022/01/26 08:32:19;;;;;;;15.32;6.37;;;;;;;4.29;89.52;101657.22;1828589;78;21113;-61
2022/01/26 08:34:48;;;;;;;14.78;6.00;;;;;;;4.32;89.66;101656.79;1832199;78;21075;-61
2022/01/26 08:37:17;;;;;;;16.32;6.78;;;;;;;4.38;89.79;101659.84;1832166;78;21038;-61
2022/01/26 08:39:46;;;;;;;14.23;6.15;;;;;;;4.27;89.33;101661.56;1832157;78;21091;-60
2022/01/26 08:42:14;;;;;;;12.37;6.03;;;;;;;4.22;89.12;101655.91;1832164;78;21207;-60
2022/01/26 08:44:43;;;;;;;14.15;5.42;;;;;;;4.08;89.06;101660.22;1832133;78;21087;-62
2022/01/26 08:47:12;;;;;;;16.27;6.37;;;;;;;3.83;89.45;101651.00;1832156;78;21034;-61
2022/01/26 08:49:40;;;;;;;15.23;6.62;;;;;;;3.68;89.12;101650.95;1815449;78;21093;-60
2022/01/26 08:52:09;;;;;;;16.60;6.50;;;;;;;3.67;89.41;101643.59;1809018;79;21172;-60
2022/01/26 08:54:38;;;;;;;15.03;6.50;;;;;;;3.71;89.67;101640.97;1808750;79;21061;-60
2022/01/26 08:57:07;;;;;;;20.48;8.25;;;;;;;3.76;89.54;101642.76;1808943;79;21519;-59
2022/01/26 08:59:36;;;;;;;20.68;8.10;;;;;;;3.78;89.11;101632.31;1808957;79;21500;-60
2022/01/26 09:02:05;;;;;;;25.57;8.68;;;;;;;3.68;88.47;101627.52;1766521;81;21487;-60
2022/01/26 09:04:34;;;;;;;27.93;10.43;;;;;;;3.60;87.94;101635.75;1787671;80;21129;-60
2022/01/26 09:07:04;;;;;;;33.45;10.68;;;;;;;3.59;87.97;101627.48;1787665;80;21047;-59
2022/01/26 09:09:42;;;;;;;25.40;8.35;;;;;;;3.60;88.26;101625.33;1787702;80;21129;-60
2022/01/26 09:12:07;;;;;;;30.35;9.23;;;;;;;3.56;88.09;101627.45;1786115;80;21071;-59
2022/01/26 09:14:34;;;;;;;34.00;10.68;;;;;;;3.43;87.67;101631.33;1782685;78;21083;-61
2022/01/26 09:17:03;;;;;;;26.95;10.10;;;;;;;3.38;87.78;101625.22;1824228;78;21039;-61
2022/01/26 09:19:32;;;;;;;36.42;9.45;;;;;;;3.42;88.04;101623.51;1805276;78;21479;-60
2022/01/26 09:22:04;;;;;;;32.60;9.88;;;;;;;3.42;88.16;101620.91;1818066;77;21455;-61
2022/01/26 09:24:35;;;;;;;39.53;12.55;;;;;;;3.43;88.78;101622.22;1889325;76;21462;-61
2022/01/26 09:27:06;;;;;;;28.73;9.85;;;;;;;3.45;88.59;101612.67;1873401;76;21071;-62
2022/01/26 09:29:35;;;;;;;34.63;10.20;;;;;;;3.44;88.34;101613.97;1893048;76;21034;-62
2022/01/26 09:32:06;;;;;;;46.25;10.78;;;;;;;3.35;87.80;101616.09;1892882;76;21473;-63
2022/01/26 09:34:37;;;;;;;37.33;13.30;;;;;;;3.24;87.48;101617.77;1896712;76;21038;-61
2022/01/26 09:37:08;;;;;;;52.55;14.33;;;;;;;3.15;87.51;101618.58;1896846;76;21040;-62
2022/01/26 09:39:38;;;;;;;35.80;9.63;;;;;;;3.04;87.44;101623.75;1896771;76;21034;-63
2022/01/26 09:42:08;;;;;;;37.10;10.93;;;;;;;3.02;87.61;101625.44;1896732;76;21535;-60
2022/01/26 09:44:37;;;;;;;39.27;11.15;;;;;;;2.95;87.42;101631.49;1896599;76;21059;-62
2022/01/26 09:47:06;;;;;;;50.33;14.70;;;;;;;2.90;87.71;101621.48;1896696;76;21531;-59
2022/01/26 09:49:36;;;;;;;42.60;12.10;;;;;;;2.81;87.74;101621.42;1896667;76;21489;-59
2022/01/26 09:52:13;;;;;;;54.95;16.50;;;;;;;2.76;87.69;101620.06;1875481;76;21553;-60
2022/01/26 09:54:38;;;;;;;53.15;15.78;;;;;;;2.75;87.72;101614.85;1857157;77;21080;-59
2022/01/26 09:57:07;;;;;;;53.48;14.68;;;;;;;2.71;87.68;101602.25;1880761;76;21043;-59
2022/01/26 09:59:37;;;;;;;59.08;16.45;;;;;;;2.70;87.83;101597.48;1889945;76;21535;-59
2022/01/26 10:02:06;;;;;;;66.80;18.15;;;;;;;2.70;88.22;101597.48;1889874;76;21585;-59
2022/01/26 10:04:40;;;;;;;50.95;14.60;;;;;;;2.69;88.05;101600.97;1889969;76;21108;-59
2022/01/26 10:09:58;;;;;;;45.23;14.13;;;;;;;2.71;88.04;101593.15;1866689;76;21040;-59
2022/01/26 10:15:27;;;;;;;33.83;10.18;;;;;;;2.90;89.49;101586.36;1858225;77;21086;-59
2022/01/26 10:18:14;;;;;;;34.38;10.00;;;;;;;2.88;89.94;101590.69;1858224;77;21043;-59
2022/01/26 10:20:51;;;;;;;29.77;10.08;;;;;;;2.70;90.18;101590.98;1858189;77;21084;-59
2022/01/26 10:23:23;;;;;;;28.17;9.28;;;;;;;2.52;90.13;101588.25;1858238;77;21354;-59
2022/01/26 10:26:13;;;;;;;30.10;10.03;;;;;;;2.49;89.97;101589.11;1858241;77;21121;-58
2022/01/26 10:28:47;;;;;;;21.95;7.78;;;;;;;2.76;90.13;101593.20;1858215;77;21094;-59
2022/01/26 10:31:19;;;;;;;14.40;5.60;;;;;;;3.22;91.12;101583.06;1858270;77;21058;-58
2022/01/26 10:33:59;;;;;;;15.98;5.47;;;;;;;3.48;90.72;101583.16;1858468;77;21581;-58
2022/01/26 10:36:37;;;;;;;19.27;7.37;;;;;;;3.52;90.17;101584.05;1845126;77;21055;-58
2022/01/26 10:39:33;;;;;;;15.40;5.72;;;;;;;3.55;89.85;101576.26;1834416;77;21074;-58
2022/01/26 10:42:02;;;;;;;16.25;6.70;;;;;;;3.49;89.34;101565.39;1856972;77;21082;-58
2022/01/26 10:44:33;;;;;;;16.30;6.40;;;;;;;3.47;89.11;101571.89;1857987;77;21579;-58
2022/01/26 10:47:04;;;;;;;9.75;5.30;;;;;;;3.51;89.70;101566.70;1858253;77;21067;-59
2022/01/26 10:52:34;;;;;;;7.87;3.95;;;;;;;3.50;89.81;101558.44;1858239;77;21051;-58
2022/01/26 10:54:55;;;;;;;8.60;3.95;;;;;;;3.40;89.16;101557.11;1856341;77;21083;-58
2022/01/26 10:57:25;;;;;;;9.70;3.65;;;;;;;3.28;89.41;101558.34;1858209;77;21532;-59
2022/01/26 10:59:54;;;;;;;13.13;4.15;;;;;;;3.19;89.73;101560.91;1858278;77;21047;-59
2022/01/26 11:02:33;;;;;;;9.18;4.08;;;;;;;3.12;89.36;101564.34;1858231;77;21093;-59
2022/01/26 11:04:57;;;;;;;12.23;4.67;;;;;;;2.93;88.12;101557.74;1857257;77;21051;-59
2022/01/26 11:07:43;;;;;;;10.53;4.42;;;;;;;2.62;87.74;101557.58;1858196;77;21071;-58
2022/01/26 11:10:12;;;;;;;11.50;4.78;;;;;;;2.53;88.85;101570.51;1858321;77;21112;-59
2022/01/26 11:12:42;;;;;;;15.03;4.25;;;;;;;2.50;89.65;101575.67;1858325;77;21078;-59
2022/01/26 11:15:13;;;;;;;7.62;3.47;;;;;;;2.45;89.76;101572.16;1858318;77;21063;-59
2022/01/26 11:17:46;;;;;;;11.05;4.20;;;;;;;2.44;89.53;101575.64;1858262;77;21070;-59
2022/01/26 11:20:31;;;;;;;13.15;4.12;;;;;;;2.50;89.38;101589.53;1849634;76;21090;-59
2022/01/26 11:22:56;;;;;;;14.40;4.37;;;;;;;2.45;88.89;101588.66;1834758;78;21141;-59
2022/01/26 11:25:30;;;;;;;10.82;3.22;;;;;;;2.33;88.37;101585.94;1796255;80;21058;-59
2022/01/26 11:27:59;;;;;;;7.87;3.25;;;;;;;2.22;88.42;101584.98;1796296;80;21113;-58
2022/01/26 11:30:33;;;;;;;8.73;2.83;;;;;;;2.09;88.01;101574.91;1796365;80;21054;-59
2022/01/26 11:33:04;;;;;;;9.35;3.30;;;;;;;2.01;87.28;101577.84;1795116;80;21106;-59
2022/01/26 11:35:36;;;;;;;9.43;3.98;;;;;;;1.97;86.84;101580.83;1794648;80;21096;-58
2022/01/26 11:38:29;;;;;;;8.88;3.55;;;;;;;1.95;86.76;101590.78;1796378;80;21058;-58
2022/01/26 11:46:34;;;;;;;7.17;3.67;;;;;;;1.78;88.26;101579.78;1796448;80;21060;-59
2022/01/26 11:49:09;;;;;;;7.00;3.17;;;;;;;1.72;88.65;101578.43;1796396;79;21090;-58
2022/01/26 11:51:46;;;;;;;6.87;3.40;;;;;;;1.78;88.42;101575.89;1796297;80;21175;-59
2022/01/26 11:54:17;;;;;;;8.23;3.35;;;;;;;1.83;87.77;101575.52;1796402;80;21066;-59
2022/01/26 11:57:06;;;;;;;7.50;2.87;;;;;;;1.88;87.52;101562.16;1796381;80;21071;-58
2022/01/26 11:59:41;;;;;;;9.08;3.55;;;;;;;1.92;87.09;101564.36;1796282;80;21129;-59
2022/01/26 12:02:19;;;;;;;8.28;2.80;;;;;;;1.87;87.10;101566.03;1795319;80;21071;-60
2022/01/26 12:04:38;;;;;;;9.00;3.10;;;;;;;1.80;87.06;101557.30;1795507;79;21066;-59
2022/01/26 12:07:11;;;;;;;5.95;3.12;;;;;;;1.80;87.04;101555.14;1796294;80;21609;-59
2022/01/26 12:09:42;;;;;;;10.15;3.33;;;;;;;1.82;87.05;101564.67;1796251;80;21505;-59
2022/01/26 12:12:19;;;;;;;8.70;3.80;;;;;;;1.74;86.71;101558.55;1796279;80;21086;-58
2022/01/26 12:15:15;;;;;;;8.93;3.55;;;;;;;1.73;87.31;101554.19;1795580;80;21043;-59
2022/01/26 12:18:17;;;;;;;6.95;3.25;;;;;;;1.72;87.81;101555.06;1795508;80;21074;-59
2022/01/26 12:34:39;;;;;;;17.77;7.67;;;;;;;2.08;88.84;101519.89;1826656;78;21506;-59
2022/01/26 12:45:24;;;;;;;8.85;3.47;;;;;;;2.15;88.22;101519.09;1826670;78;21051;-59
2022/01/26 12:47:58;;;;;;;12.00;4.58;;;;;;;1.98;88.04;101520.69;1826716;78;21086;-58
2022/01/26 12:50:28;;;;;;;17.62;5.17;;;;;;;1.86;87.30;101531.81;1826693;78;21015;-58
2022/01/26 12:52:58;;;;;;;12.63;4.80;;;;;;;1.82;87.21;101525.72;1826668;78;21148;-59
2022/01/26 12:58:22;;;;;;;10.18;4.03;;;;;;;1.76;87.15;101519.18;1873962;76;21044;-58
2022/01/26 13:00:51;;;;;;;14.18;5.85;;;;;;;1.68;87.75;101514.36;1902334;75;21586;-59
2022/01/26 13:03:23;;;;;;;14.45;5.60;;;;;;;1.59;88.10;101523.34;1903036;75;21108;-59
2022/01/26 13:05:50;;;;;;;9.85;4.95;;;;;;;1.56;88.21;101532.39;1902987;75;21045;-59
2022/01/26 13:08:19;;;;;;;9.70;5.30;;;;;;;1.54;88.11;101529.33;1902923;75;21049;-59
2022/01/26 13:10:48;;;;;;;11.75;5.17;;;;;;;1.53;87.95;101530.61;1903109;75;21460;-58
2022/01/26 13:13:22;;;;;;;10.90;5.03;;;;;;;1.52;87.85;101526.30;1902794;75;21061;-58
2022/01/26 13:16:07;;;;;;;13.15;5.40;;;;;;;1.49;87.98;101534.89;1903004;75;21058;-59
2022/01/26 13:18:49;;;;;;;13.13;4.70;;;;;;;1.48;88.19;101539.66;1902636;75;21519;-58
2022/01/26 13:21:29;;;;;;;9.75;4.95;;;;;;;1.49;88.35;101541.82;1902223;75;21053;-58
2022/01/26 13:24:07;;;;;;;12.28;4.95;;;;;;;1.47;88.56;101540.50;1902266;75;21085;-59
2022/01/26 13:26:51;;;;;;;10.63;5.20;;;;;;;1.51;88.52;101538.81;1902376;75;21070;-58
2022/01/26 13:29:25;;;;;;;10.95;5.37;;;;;;;1.50;88.39;101541.84;1902164;75;21065;-59
2022/01/26 13:43:01;;;;;;;10.53;4.90;;;;;;;1.25;88.55;101537.22;1902898;75;21077;-59
2022/01/26 13:45:28;;;;;;;11.73;4.85;;;;;;;1.23;87.99;101544.11;1902603;75;21041;-58
2022/01/26 13:52:39;;;;;;;10.95;5.60;;;;;;;0.96;87.34;101555.89;1903233;75;21082;-59
2022/01/26 13:55:35;;;;;;;10.58;5.33;;;;;;;0.87;87.60;101553.17;1902897;75;21239;-59
2022/01/26 14:00:15;;;;;;;10.45;6.28;;;;;;;0.92;87.61;101551.48;1879010;75;21500;-59
2022/01/26 14:02:43;;;;;;;11.55;5.85;;;;;;;0.83;87.53;101546.17;1899550;75;21049;-58
2022/01/26 14:05:13;;;;;;;14.50;6.37;;;;;;;0.76;87.94;101556.47;1899441;75;21143;-59
2022/01/26 14:07:41;;;;;;;12.05;6.10;;;;;;;0.76;88.21;101553.88;1899587;75;21566;-59
2022/01/26 14:10:11;;;;;;;13.40;6.35;;;;;;;0.76;87.96;101557.77;1899676;75;21041;-58